sensor_id;sensor_type;location;lat;lon;timestamp;pressure;altitude;pressure_sealevel;temperature;humidity
11041;BME280;5573;49.592;8.662;2023-07-30T00:00:54;99376.34;;;18.38;94.36
11041;BME280;5573;49.592;8.662;2023-07-30T00:03:22;99371.50;;;18.30;95.29
11041;BME280;5573;49.592;8.662;2023-07-30T00:05:54;99370.16;;;18.22;95.58
11041;BME280;5573;49.592;8.662;2023-07-30T00:08:22;99383.34;;;18.24;95.72
11041;BME280;5573;49.592;8.662;2023-07-30T00:10:50;99380.41;;;18.20;96.18
11041;BME280;5573;49.592;8.662;2023-07-30T00:13:18;99383.34;;;18.39;95.41
11041;BME280;5573;49.592;8.662;2023-07-30T00:15:46;99387.94;;;18.28;95.26
11041;BME280;5573;49.592;8.662;2023-07-30T00:18:16;99414.63;;;18.35;95.06
11041;BME280;5573;49.592;8.662;2023-07-30T00:20:44;99406.28;;;18.31;95.02
11041;BME280;5573;49.592;8.662;2023-07-30T00:23:12;99400.34;;;18.34;94.99
11041;BME280;5573;49.592;8.662;2023-07-30T00:25:39;99408.97;;;18.31;95.17
11041;BME280;5573;49.592;8.662;2023-07-30T00:28:08;99412.22;;;18.28;95.31
11041;BME280;5573;49.592;8.662;2023-07-30T00:30:36;99413.03;;;18.29;95.44
11041;BME280;5573;49.592;8.662;2023-07-30T00:33:03;99418.13;;;18.20;95.32
11041;BME280;5573;49.592;8.662;2023-07-30T00:35:33;99413.84;;;18.29;94.96
11041;BME280;5573;49.592;8.662;2023-07-30T00:38:01;99410.63;;;18.27;94.70
11041;BME280;5573;49.592;8.662;2023-07-30T00:40:29;99411.69;;;18.21;94.62
11041;BME280;5573;49.592;8.662;2023-07-30T00:42:57;99427.34;;;18.19;94.70
11041;BME280;5573;49.592;8.662;2023-07-30T00:45:24;99419.25;;;18.19;94.67
11041;BME280;5573;49.592;8.662;2023-07-30T00:47:53;99423.28;;;18.22;94.50
11041;BME280;5573;49.592;8.662;2023-07-30T00:50:21;99423.28;;;18.22;94.49
11041;BME280;5573;49.592;8.662;2023-07-30T00:52:51;99432.72;;;18.19;94.46
11041;BME280;5573;49.592;8.662;2023-07-30T00:55:19;99428.94;;;18.15;94.55
11041;BME280;5573;49.592;8.662;2023-07-30T00:57:47;99424.63;;;18.19;93.94
11041;BME280;5573;49.592;8.662;2023-07-30T01:00:16;99440.00;;;18.29;93.62
11041;BME280;5573;49.592;8.662;2023-07-30T01:02:44;99441.91;;;18.23;94.21
11041;BME280;5573;49.592;8.662;2023-07-30T01:05:12;99435.41;;;18.19;94.27
11041;BME280;5573;49.592;8.662;2023-07-30T01:07:40;99439.16;;;18.13;95.15
11041;BME280;5573;49.592;8.662;2023-07-30T01:10:09;99444.56;;;18.08;95.36
11041;BME280;5573;49.592;8.662;2023-07-30T01:12:38;99438.34;;;18.13;95.59
11041;BME280;5573;49.592;8.662;2023-07-30T01:15:08;99448.06;;;18.14;95.66
11041;BME280;5573;49.592;8.662;2023-07-30T01:17:37;99445.66;;;18.17;95.43
11041;BME280;5573;49.592;8.662;2023-07-30T01:20:06;99440.00;;;18.19;95.50
11041;BME280;5573;49.592;8.662;2023-07-30T01:22:36;99437.81;;;18.21;95.21
11041;BME280;5573;49.592;8.662;2023-07-30T01:25:04;99439.72;;;18.15;95.76
11041;BME280;5573;49.592;8.662;2023-07-30T01:27:36;99432.44;;;18.16;95.04
11041;BME280;5573;49.592;8.662;2023-07-30T01:30:17;99445.66;;;18.27;94.96
11041;BME280;5573;49.592;8.662;2023-07-30T01:32:48;99406.03;;;17.98;95.13
11041;BME280;5573;49.592;8.662;2023-07-30T01:35:18;99441.34;;;18.26;95.19
11041;BME280;5573;49.592;8.662;2023-07-30T01:37:50;99447.00;;;18.30;95.17
11041;BME280;5573;49.592;8.662;2023-07-30T01:40:19;99454.81;;;18.31;95.00
11041;BME280;5573;49.592;8.662;2023-07-30T01:42:48;99458.59;;;18.30;95.01
11041;BME280;5573;49.592;8.662;2023-07-30T01:45:16;99456.97;;;18.29;95.26
11041;BME280;5573;49.592;8.662;2023-07-30T01:47:45;99459.97;;;18.38;94.91
11041;BME280;5573;49.592;8.662;2023-07-30T01:50:13;99458.84;;;18.39;94.57
11041;BME280;5573;49.592;8.662;2023-07-30T01:52:41;99448.59;;;18.21;94.77
11041;BME280;5573;49.592;8.662;2023-07-30T01:55:10;99464.53;;;18.22;95.12
11041;BME280;5573;49.592;8.662;2023-07-30T01:57:38;99463.97;;;18.20;95.23
11041;BME280;5573;49.592;8.662;2023-07-30T02:00:07;99461.28;;;18.15;95.17
11041;BME280;5573;49.592;8.662;2023-07-30T02:02:35;99466.66;;;18.20;94.88
11041;BME280;5573;49.592;8.662;2023-07-30T02:05:03;99453.22;;;18.15;95.33
11041;BME280;5573;49.592;8.662;2023-07-30T02:07:32;99453.47;;;18.09;95.73
11041;BME280;5573;49.592;8.662;2023-07-30T02:09:59;99459.13;;;18.07;95.96
11041;BME280;5573;49.592;8.662;2023-07-30T02:12:29;99461.56;;;18.09;96.34
11041;BME280;5573;49.592;8.662;2023-07-30T02:14:57;99468.84;;;18.18;95.57
11041;BME280;5573;49.592;8.662;2023-07-30T02:17:25;99466.94;;;18.14;95.43
11041;BME280;5573;49.592;8.662;2023-07-30T02:19:53;99464.53;;;18.12;95.39
11041;BME280;5573;49.592;8.662;2023-07-30T02:22:21;99471.25;;;18.15;95.49
11041;BME280;5573;49.592;8.662;2023-07-30T02:24:49;99480.41;;;18.24;95.35
11041;BME280;5573;49.592;8.662;2023-07-30T02:27:17;99475.84;;;18.14;95.64
11041;BME280;5573;49.592;8.662;2023-07-30T02:29:46;99462.91;;;18.16;96.20
11041;BME280;5573;49.592;8.662;2023-07-30T02:32:15;99476.41;;;18.16;96.24
11041;BME280;5573;49.592;8.662;2023-07-30T02:34:43;99473.94;;;18.10;96.16
11041;BME280;5573;49.592;8.662;2023-07-30T02:37:11;99471.25;;;18.10;96.19
11041;BME280;5573;49.592;8.662;2023-07-30T02:39:39;99468.56;;;18.05;96.29
11041;BME280;5573;49.592;8.662;2023-07-30T02:42:07;99461.28;;;18.10;96.31
11041;BME280;5573;49.592;8.662;2023-07-30T02:44:35;99461.28;;;18.10;95.72
11041;BME280;5573;49.592;8.662;2023-07-30T02:47:05;99469.94;;;18.12;95.52
11041;BME280;5573;49.592;8.662;2023-07-30T02:49:32;99460.75;;;18.03;95.15
11041;BME280;5573;49.592;8.662;2023-07-30T02:52:00;99465.31;;;18.03;95.04
11041;BME280;5573;49.592;8.662;2023-07-30T02:54:28;99459.63;;;17.94;95.13
11041;BME280;5573;49.592;8.662;2023-07-30T02:56:56;99475.78;;;17.79;95.75
11041;BME280;5573;49.592;8.662;2023-07-30T02:59:24;99476.88;;;17.78;96.16
11041;BME280;5573;49.592;8.662;2023-07-30T03:01:51;99476.31;;;17.76;96.08
11041;BME280;5573;49.592;8.662;2023-07-30T03:04:20;99473.63;;;17.71;96.80
11041;BME280;5573;49.592;8.662;2023-07-30T03:06:48;99476.88;;;17.78;96.79
11041;BME280;5573;49.592;8.662;2023-07-30T03:09:16;99469.84;;;17.77;96.88
11041;BME280;5573;49.592;8.662;2023-07-30T03:11:44;99481.41;;;17.72;97.35
11041;BME280;5573;49.592;8.662;2023-07-30T03:14:12;99488.94;;;17.65;97.65
11041;BME280;5573;49.592;8.662;2023-07-30T03:16:39;99484.38;;;17.76;97.72
11041;BME280;5573;49.592;8.662;2023-07-30T03:19:08;99479.53;;;17.73;97.89
11041;BME280;5573;49.592;8.662;2023-07-30T03:21:36;99485.44;;;17.65;98.14
11041;BME280;5573;49.592;8.662;2023-07-30T03:24:05;99486.53;;;17.64;98.39
11041;BME280;5573;49.592;8.662;2023-07-30T03:26:33;99484.88;;;17.58;98.62
11041;BME280;5573;49.592;8.662;2023-07-30T03:29:01;99485.63;;;17.53;98.63
11041;BME280;5573;49.592;8.662;2023-07-30T03:31:28;99489.13;;;17.49;98.72
11041;BME280;5573;49.592;8.662;2023-07-30T03:33:57;99484.56;;;17.49;99.01
11041;BME280;5573;49.592;8.662;2023-07-30T03:36:25;99477.81;;;17.46;99.07
11041;BME280;5573;49.592;8.662;2023-07-30T03:38:54;99481.88;;;17.49;99.45
11041;BME280;5573;49.592;8.662;2023-07-30T03:41:22;99487.25;;;17.49;99.53
11041;BME280;5573;49.592;8.662;2023-07-30T03:43:52;99494.53;;;17.54;99.40
11041;BME280;5573;49.592;8.662;2023-07-30T03:46:20;99499.91;;;17.54;99.34
11041;BME280;5573;49.592;8.662;2023-07-30T03:48:48;99501.59;;;17.60;99.47
11041;BME280;5573;49.592;8.662;2023-07-30T03:51:16;99496.78;;;17.67;99.38
11041;BME280;5573;49.592;8.662;2023-07-30T03:53:44;99495.72;;;17.78;99.18
11041;BME280;5573;49.592;8.662;2023-07-30T03:56:13;99503.25;;;17.76;99.27
11041;BME280;5573;49.592;8.662;2023-07-30T03:58:41;99499.53;;;17.92;99.27
11041;BME280;5573;49.592;8.662;2023-07-30T04:01:09;99495.19;;;17.81;98.88
11041;BME280;5573;49.592;8.662;2023-07-30T04:03:37;99496.81;;;17.87;98.83
11041;BME280;5573;49.592;8.662;2023-07-30T04:06:05;99505.16;;;17.80;98.61
11041;BME280;5573;49.592;8.662;2023-07-30T04:08:33;99504.63;;;17.78;98.69
11041;BME280;5573;49.592;8.662;2023-07-30T04:11:00;99505.16;;;17.75;98.63
11041;BME280;5573;49.592;8.662;2023-07-30T04:13:30;99512.44;;;17.75;98.52
11041;BME280;5573;49.592;8.662;2023-07-30T04:15:57;99512.41;;;17.70;98.73
11041;BME280;5573;49.592;8.662;2023-07-30T04:18:25;99513.78;;;17.77;98.91
11041;BME280;5573;49.592;8.662;2023-07-30T04:20:54;99512.19;;;17.86;98.34
11041;BME280;5573;49.592;8.662;2023-07-30T04:23:22;99514.59;;;17.78;98.38
11041;BME280;5573;49.592;8.662;2023-07-30T04:25:50;99523.19;;;17.80;98.26
11041;BME280;5573;49.592;8.662;2023-07-30T04:28:17;99532.13;;;17.85;98.20
11041;BME280;5573;49.592;8.662;2023-07-30T04:30:47;99528.91;;;17.93;97.87
11041;BME280;5573;49.592;8.662;2023-07-30T04:33:15;99537.00;;;17.93;97.51
11041;BME280;5573;49.592;8.662;2023-07-30T04:35:43;99532.97;;;17.96;97.48
11041;BME280;5573;49.592;8.662;2023-07-30T04:38:11;99534.84;;;17.96;97.25
11041;BME280;5573;49.592;8.662;2023-07-30T04:40:39;99540.50;;;17.99;96.95
11041;BME280;5573;49.592;8.662;2023-07-30T04:43:07;99540.47;;;17.94;96.66
11041;BME280;5573;49.592;8.662;2023-07-30T04:45:36;99544.03;;;18.05;96.84
11041;BME280;5573;49.592;8.662;2023-07-30T04:48:06;99558.31;;;18.05;96.43
11041;BME280;5573;49.592;8.662;2023-07-30T04:50:34;99557.50;;;18.05;96.32
11041;BME280;5573;49.592;8.662;2023-07-30T04:53:02;99554.53;;;18.06;96.29
11041;BME280;5573;49.592;8.662;2023-07-30T04:55:30;99545.91;;;18.04;96.43
11041;BME280;5573;49.592;8.662;2023-07-30T04:58:00;99552.88;;;17.95;96.72
11041;BME280;5573;49.592;8.662;2023-07-30T05:00:29;99547.25;;;18.02;96.92
11041;BME280;5573;49.592;8.662;2023-07-30T05:02:56;99538.34;;;17.96;96.61
11041;BME280;5573;49.592;8.662;2023-07-30T05:05:26;99543.75;;;18.01;96.88
11041;BME280;5573;49.592;8.662;2023-07-30T05:07:53;99540.53;;;18.09;96.14
11041;BME280;5573;49.592;8.662;2023-07-30T05:10:21;99541.09;;;18.11;95.44
11041;BME280;5573;49.592;8.662;2023-07-30T05:12:49;99541.63;;;18.08;95.88
11041;BME280;5573;49.592;8.662;2023-07-30T05:15:17;99531.13;;;18.12;95.46
11041;BME280;5573;49.592;8.662;2023-07-30T05:17:44;99528.13;;;18.03;96.09
11041;BME280;5573;49.592;8.662;2023-07-30T05:20:12;99525.44;;;18.08;96.35
11041;BME280;5573;49.592;8.662;2023-07-30T05:22:42;99506.56;;;18.13;96.84
11041;BME280;5573;49.592;8.662;2023-07-30T05:25:09;99492.00;;;18.09;96.67
11041;BME280;5573;49.592;8.662;2023-07-30T05:27:37;99500.63;;;18.06;96.64
11041;BME280;5573;49.592;8.662;2023-07-30T05:30:06;99495.22;;;18.06;96.40
11041;BME280;5573;49.592;8.662;2023-07-30T05:32:34;99504.66;;;17.99;96.14
11041;BME280;5573;49.592;8.662;2023-07-30T05:35:02;99502.53;;;18.01;95.73
11041;BME280;5573;49.592;8.662;2023-07-30T05:37:30;99504.38;;;17.90;95.57
11041;BME280;5573;49.592;8.662;2023-07-30T05:39:59;99509.22;;;17.88;96.29
11041;BME280;5573;49.592;8.662;2023-07-30T05:42:27;99515.69;;;17.92;96.40
11041;BME280;5573;49.592;8.662;2023-07-30T05:44:55;99517.88;;;18.00;96.34
11041;BME280;5573;49.592;8.662;2023-07-30T05:47:23;99521.38;;;18.06;96.06
11041;BME280;5573;49.592;8.662;2023-07-30T05:49:51;99515.22;;;18.15;94.51
11041;BME280;5573;49.592;8.662;2023-07-30T05:52:18;99512.50;;;18.15;93.98
11041;BME280;5573;49.592;8.662;2023-07-30T05:54:46;99521.44;;;18.26;93.72
11041;BME280;5573;49.592;8.662;2023-07-30T05:57:15;99516.81;;;18.21;93.34
11041;BME280;5573;49.592;8.662;2023-07-30T05:59:43;99521.16;;;18.32;93.25
11041;BME280;5573;49.592;8.662;2023-07-30T06:02:11;99529.53;;;18.41;92.87
11041;BME280;5573;49.592;8.662;2023-07-30T06:04:38;99521.44;;;18.36;92.92
11041;BME280;5573;49.592;8.662;2023-07-30T06:07:07;99526.28;;;18.29;92.33
11041;BME280;5573;49.592;8.662;2023-07-30T06:09:35;99531.97;;;18.37;92.81
11041;BME280;5573;49.592;8.662;2023-07-30T06:12:02;99539.56;;;18.61;91.01
11041;BME280;5573;49.592;8.662;2023-07-30T06:14:32;99532.00;;;18.68;91.86
11041;BME280;5573;49.592;8.662;2023-07-30T06:16:59;99529.84;;;18.75;91.14
11041;BME280;5573;49.592;8.662;2023-07-30T06:19:28;99539.28;;;18.77;91.89
11041;BME280;5573;49.592;8.662;2023-07-30T06:21:55;99536.00;;;18.96;90.13
11041;BME280;5573;49.592;8.662;2023-07-30T06:24:23;99543.84;;;19.07;89.25
11041;BME280;5573;49.592;8.662;2023-07-30T06:26:51;99543.78;;;19.32;87.91
11041;BME280;5573;49.592;8.662;2023-07-30T06:29:19;99545.38;;;19.49;88.40
11041;BME280;5573;49.592;8.662;2023-07-30T06:31:48;99551.69;;;19.93;86.57
11041;BME280;5573;49.592;8.662;2023-07-30T06:34:16;99557.03;;;20.03;86.33
11041;BME280;5573;49.592;8.662;2023-07-30T06:36:44;99556.50;;;20.01;86.43
11041;BME280;5573;49.592;8.662;2023-07-30T06:39:12;99555.81;;;19.75;86.48
11041;BME280;5573;49.592;8.662;2023-07-30T06:41:40;99563.72;;;19.57;87.98
11041;BME280;5573;49.592;8.662;2023-07-30T06:44:08;99562.66;;;19.53;87.70
11041;BME280;5573;49.592;8.662;2023-07-30T06:46:36;99563.75;;;19.36;88.56
11041;BME280;5573;49.592;8.662;2023-07-30T06:49:06;99560.00;;;19.43;87.22
11041;BME280;5573;49.592;8.662;2023-07-30T06:51:34;99571.31;;;19.39;88.64
11041;BME280;5573;49.592;8.662;2023-07-30T06:54:02;99567.81;;;19.39;88.40
11041;BME280;5573;49.592;8.662;2023-07-30T06:56:30;99568.59;;;19.39;87.57
11041;BME280;5573;49.592;8.662;2023-07-30T06:58:58;99561.63;;;19.23;89.35
11041;BME280;5573;49.592;8.662;2023-07-30T07:01:26;99554.56;;;19.37;87.88
11041;BME280;5573;49.592;8.662;2023-07-30T07:03:54;99557.81;;;19.50;89.05
11041;BME280;5573;49.592;8.662;2023-07-30T07:06:23;99555.91;;;19.40;88.63
11041;BME280;5573;49.592;8.662;2023-07-30T07:08:52;99547.28;;;19.33;88.10
11041;BME280;5573;49.592;8.662;2023-07-30T07:11:20;99548.09;;;19.44;89.33
11041;BME280;5573;49.592;8.662;2023-07-30T07:13:49;99558.84;;;19.64;89.20
11041;BME280;5573;49.592;8.662;2023-07-30T07:16:16;99567.38;;;19.91;86.00
11041;BME280;5573;49.592;8.662;2023-07-30T07:18:45;99570.69;;;19.73;86.77
11041;BME280;5573;49.592;8.662;2023-07-30T07:21:15;99569.41;;;19.60;87.36
11041;BME280;5573;49.592;8.662;2023-07-30T07:23:44;99577.28;;;19.42;88.36
11041;BME280;5573;49.592;8.662;2023-07-30T07:26:12;99571.34;;;19.34;88.79
11041;BME280;5573;49.592;8.662;2023-07-30T07:28:40;99574.00;;;19.39;89.12
11041;BME280;5573;49.592;8.662;2023-07-30T07:31:08;99576.69;;;19.65;88.39
11041;BME280;5573;49.592;8.662;2023-07-30T07:33:35;99577.34;;;19.96;87.20
11041;BME280;5573;49.592;8.662;2023-07-30T07:36:04;99584.13;;;19.98;86.98
11041;BME280;5573;49.592;8.662;2023-07-30T07:38:33;99581.91;;;20.05;86.75
11041;BME280;5573;49.592;8.662;2023-07-30T07:41:02;99579.28;;;19.90;86.90
11041;BME280;5573;49.592;8.662;2023-07-30T07:43:30;99567.16;;;19.82;87.79
11041;BME280;5573;49.592;8.662;2023-07-30T07:45:58;99580.09;;;19.85;87.66
11041;BME280;5573;49.592;8.662;2023-07-30T07:48:26;99572.88;;;19.71;88.16
11041;BME280;5573;49.592;8.662;2023-07-30T07:50:54;99582.38;;;19.48;89.40
11041;BME280;5573;49.592;8.662;2023-07-30T07:53:22;99566.19;;;19.33;89.72
11041;BME280;5573;49.592;8.662;2023-07-30T07:55:49;99570.53;;;19.14;91.57
11041;BME280;5573;49.592;8.662;2023-07-30T07:58:18;99551.94;;;18.92;92.65
11041;BME280;5573;49.592;8.662;2023-07-30T08:00:46;99573.28;;;18.88;93.18
11041;BME280;5573;49.592;8.662;2023-07-30T08:03:14;99579.75;;;18.87;93.27
11041;BME280;5573;49.592;8.662;2023-07-30T08:05:42;99575.16;;;18.93;93.45
11041;BME280;5573;49.592;8.662;2023-07-30T08:08:10;99575.69;;;19.00;92.56
11041;BME280;5573;49.592;8.662;2023-07-30T08:10:39;99581.09;;;19.15;92.18
11041;BME280;5573;49.592;8.662;2023-07-30T08:13:09;99586.72;;;19.39;91.97
11041;BME280;5573;49.592;8.662;2023-07-30T08:15:39;99583.41;;;19.62;90.67
11041;BME280;5573;49.592;8.662;2023-07-30T08:18:07;99587.00;;;20.17;89.36
11041;BME280;5573;49.592;8.662;2023-07-30T08:20:35;99580.72;;;20.21;88.00
11041;BME280;5573;49.592;8.662;2023-07-30T08:23:03;99582.09;;;20.19;87.56
11041;BME280;5573;49.592;8.662;2023-07-30T08:25:31;99578.06;;;20.16;88.34
11041;BME280;5573;49.592;8.662;2023-07-30T08:27:59;99576.59;;;20.39;87.19
11041;BME280;5573;49.592;8.662;2023-07-30T08:30:27;99577.19;;;20.26;87.79
11041;BME280;5573;49.592;8.662;2023-07-30T08:32:56;99589.97;;;20.15;88.57
11041;BME280;5573;49.592;8.662;2023-07-30T08:35:24;99593.22;;;20.12;87.85
11041;BME280;5573;49.592;8.662;2023-07-30T08:37:53;99584.50;;;20.25;88.60
11041;BME280;5573;49.592;8.662;2023-07-30T08:40:22;99593.34;;;20.41;86.93
11041;BME280;5573;49.592;8.662;2023-07-30T08:42:50;99582.69;;;20.55;83.59
11041;BME280;5573;49.592;8.662;2023-07-30T08:45:19;99582.28;;;20.38;83.05
11041;BME280;5573;49.592;8.662;2023-07-30T08:47:47;99581.22;;;20.39;79.64
11041;BME280;5573;49.592;8.662;2023-07-30T08:50:16;99586.06;;;20.42;76.19
11041;BME280;5573;49.592;8.662;2023-07-30T08:52:44;99575.88;;;20.18;76.53
11041;BME280;5573;49.592;8.662;2023-07-30T08:55:12;99579.00;;;20.41;71.74
11041;BME280;5573;49.592;8.662;2023-07-30T08:57:40;99572.88;;;20.69;70.88
11041;BME280;5573;49.592;8.662;2023-07-30T09:00:11;99578.09;;;20.89;70.89
11041;BME280;5573;49.592;8.662;2023-07-30T09:02:42;99583.47;;;21.28;69.88
11041;BME280;5573;49.592;8.662;2023-07-30T09:05:11;99572.63;;;21.52;68.80
11041;BME280;5573;49.592;8.662;2023-07-30T09:07:40;99586.03;;;21.67;67.02
11041;BME280;5573;49.592;8.662;2023-07-30T09:10:08;99590.44;;;21.82;65.09
11041;BME280;5573;49.592;8.662;2023-07-30T09:12:36;99584.06;;;21.96;64.96
11041;BME280;5573;49.592;8.662;2023-07-30T09:15:06;99589.47;;;21.96;62.81
11041;BME280;5573;49.592;8.662;2023-07-30T09:17:34;99590.91;;;21.89;62.88
11041;BME280;5573;49.592;8.662;2023-07-30T09:20:03;99594.84;;;22.01;63.65
11041;BME280;5573;49.592;8.662;2023-07-30T09:22:33;99600.09;;;22.16;62.46
11041;BME280;5573;49.592;8.662;2023-07-30T09:25:04;99592.53;;;22.32;62.06
11041;BME280;5573;49.592;8.662;2023-07-30T09:27:33;99597.88;;;22.56;61.22
11041;BME280;5573;49.592;8.662;2023-07-30T09:30:03;99599.94;;;22.45;63.85
11041;BME280;5573;49.592;8.662;2023-07-30T09:32:34;99600.81;;;22.41;64.18
11041;BME280;5573;49.592;8.662;2023-07-30T09:35:05;99607.72;;;22.52;61.77
11041;BME280;5573;49.592;8.662;2023-07-30T09:37:36;99609.69;;;22.28;60.10
11041;BME280;5573;49.592;8.662;2023-07-30T09:40:08;99619.16;;;22.49;61.49
11041;BME280;5573;49.592;8.662;2023-07-30T09:42:36;99620.56;;;22.28;60.72
11041;BME280;5573;49.592;8.662;2023-07-30T09:45:07;99623.06;;;22.43;58.71
11041;BME280;5573;49.592;8.662;2023-07-30T09:47:36;99623.66;;;22.96;58.49
11041;BME280;5573;49.592;8.662;2023-07-30T09:50:06;99626.69;;;23.08;57.51
11041;BME280;5573;49.592;8.662;2023-07-30T09:52:34;99636.34;;;22.02;58.57
11041;BME280;5573;49.592;8.662;2023-07-30T09:55:03;99623.41;;;21.46;60.61
11041;BME280;5573;49.592;8.662;2023-07-30T09:57:35;99630.34;;;21.28;63.42
11041;BME280;5573;49.592;8.662;2023-07-30T10:00:03;99627.44;;;21.20;62.21
11041;BME280;5573;49.592;8.662;2023-07-30T10:02:37;99645.00;;;21.22;63.18
11041;BME280;5573;49.592;8.662;2023-07-30T10:05:10;99649.78;;;21.36;62.08
11041;BME280;5573;49.592;8.662;2023-07-30T10:07:42;99644.47;;;21.54;61.34
11041;BME280;5573;49.592;8.662;2023-07-30T10:10:12;99652.59;;;21.54;62.67
11041;BME280;5573;49.592;8.662;2023-07-30T10:12:43;99644.25;;;21.98;63.64
11041;BME280;5573;49.592;8.662;2023-07-30T10:15:11;99647.09;;;22.31;60.82
11041;BME280;5573;49.592;8.662;2023-07-30T10:17:39;99653.63;;;22.30;62.72
11041;BME280;5573;49.592;8.662;2023-07-30T10:20:21;99669.31;;;22.14;63.32
11041;BME280;5573;49.592;8.662;2023-07-30T10:22:53;99664.25;;;22.26;62.53
11041;BME280;5573;49.592;8.662;2023-07-30T10:25:22;99657.94;;;22.12;62.50
11041;BME280;5573;49.592;8.662;2023-07-30T10:27:52;99656.41;;;21.77;64.96
11041;BME280;5573;49.592;8.662;2023-07-30T10:30:20;99630.72;;;21.46;64.62
11041;BME280;5573;49.592;8.662;2023-07-30T10:32:59;99620.72;;;21.12;65.65
11041;BME280;5573;49.592;8.662;2023-07-30T10:35:42;99654.88;;;21.13;61.83
11041;BME280;5573;49.592;8.662;2023-07-30T10:38:15;99662.28;;;21.32;60.56
11041;BME280;5573;49.592;8.662;2023-07-30T10:40:59;99665.94;;;21.46;59.02
11041;BME280;5573;49.592;8.662;2023-07-30T10:43:29;99669.34;;;22.33;58.37
11041;BME280;5573;49.592;8.662;2023-07-30T10:45:58;99671.13;;;22.18;56.81
11041;BME280;5573;49.592;8.662;2023-07-30T10:48:33;99664.41;;;21.92;57.29
11041;BME280;5573;49.592;8.662;2023-07-30T10:51:02;99669.81;;;21.40;59.91
11041;BME280;5573;49.592;8.662;2023-07-30T10:53:30;99675.28;;;21.29;59.54
11041;BME280;5573;49.592;8.662;2023-07-30T10:55:58;99654.69;;;21.62;59.17
11041;BME280;5573;49.592;8.662;2023-07-30T10:58:30;99684.94;;;21.98;58.65
11041;BME280;5573;49.592;8.662;2023-07-30T11:01:00;99652.31;;;22.46;56.27
11041;BME280;5573;49.592;8.662;2023-07-30T11:03:29;99687.16;;;23.51;54.47
11041;BME280;5573;49.592;8.662;2023-07-30T11:05:59;99688.03;;;23.92;50.33
11041;BME280;5573;49.592;8.662;2023-07-30T11:08:34;99697.84;;;23.29;51.82
11041;BME280;5573;49.592;8.662;2023-07-30T11:11:03;99693.59;;;22.66;55.49
11041;BME280;5573;49.592;8.662;2023-07-30T11:13:36;99702.94;;;22.37;54.16
11041;BME280;5573;49.592;8.662;2023-07-30T11:16:06;99700.50;;;22.59;54.13
11041;BME280;5573;49.592;8.662;2023-07-30T11:18:34;99703.47;;;23.32;52.77
11041;BME280;5573;49.592;8.662;2023-07-30T11:21:03;99709.88;;;23.87;50.52
11041;BME280;5573;49.592;8.662;2023-07-30T11:23:32;99709.25;;;23.63;50.90
11041;BME280;5573;49.592;8.662;2023-07-30T11:26:02;99718.41;;;23.16;49.69
11041;BME280;5573;49.592;8.662;2023-07-30T11:28:31;99730.31;;;23.01;50.02
11041;BME280;5573;49.592;8.662;2023-07-30T11:33:34;99747.81;;;22.95;48.98
11041;BME280;5573;49.592;8.662;2023-07-30T11:36:04;99737.56;;;22.68;50.85
11041;BME280;5573;49.592;8.662;2023-07-30T11:38:34;99734.72;;;22.36;50.49
11041;BME280;5573;49.592;8.662;2023-07-30T11:41:02;99739.19;;;21.98;50.79
11041;BME280;5573;49.592;8.662;2023-07-30T11:43:32;99738.97;;;21.90;51.00
11041;BME280;5573;49.592;8.662;2023-07-30T11:46:09;99742.63;;;21.80;51.63
11041;BME280;5573;49.592;8.662;2023-07-30T11:48:37;99745.41;;;21.70;51.71
11041;BME280;5573;49.592;8.662;2023-07-30T11:51:05;99755.97;;;21.71;50.77
11041;BME280;5573;49.592;8.662;2023-07-30T11:53:50;99761.84;;;21.84;50.72
11041;BME280;5573;49.592;8.662;2023-07-30T11:56:20;99758.66;;;21.76;49.91
11041;BME280;5573;49.592;8.662;2023-07-30T11:58:50;99763.06;;;21.96;51.69
11041;BME280;5573;49.592;8.662;2023-07-30T12:01:20;99757.25;;;22.08;49.45
11041;BME280;5573;49.592;8.662;2023-07-30T12:03:48;99754.03;;;22.77;48.82
11041;BME280;5573;49.592;8.662;2023-07-30T12:06:16;99768.75;;;22.71;47.90
11041;BME280;5573;49.592;8.662;2023-07-30T12:08:44;99779.41;;;22.44;49.75
11041;BME280;5573;49.592;8.662;2023-07-30T12:11:12;99724.56;;;21.99;48.94
11041;BME280;5573;49.592;8.662;2023-07-30T12:13:44;99760.59;;;22.29;50.35
11041;BME280;5573;49.592;8.662;2023-07-30T12:16:13;99788.63;;;22.90;47.83
11041;BME280;5573;49.592;8.662;2023-07-30T12:18:45;99797.63;;;22.86;47.13
11041;BME280;5573;49.592;8.662;2023-07-30T12:21:13;99786.09;;;22.51;47.54
11041;BME280;5573;49.592;8.662;2023-07-30T12:23:41;99799.47;;;22.19;49.03
11041;BME280;5573;49.592;8.662;2023-07-30T12:26:09;99800.06;;;22.16;48.80
11041;BME280;5573;49.592;8.662;2023-07-30T12:28:38;99811.00;;;22.82;47.07
11041;BME280;5573;49.592;8.662;2023-07-30T12:31:05;99808.59;;;22.99;45.79
11041;BME280;5573;49.592;8.662;2023-07-30T12:33:33;99811.94;;;23.15;46.31
11041;BME280;5573;49.592;8.662;2023-07-30T12:36:03;99812.00;;;23.10;44.82
11041;BME280;5573;49.592;8.662;2023-07-30T12:38:31;99807.13;;;22.88;44.17
11041;BME280;5573;49.592;8.662;2023-07-30T12:40:58;99812.59;;;22.59;44.89
11041;BME280;5573;49.592;8.662;2023-07-30T12:43:26;99813.47;;;22.55;45.09
11041;BME280;5573;49.592;8.662;2023-07-30T12:45:54;99801.19;;;22.62;45.17
11041;BME280;5573;49.592;8.662;2023-07-30T12:48:22;99806.78;;;22.71;45.58
11041;BME280;5573;49.592;8.662;2023-07-30T12:50:50;99806.16;;;22.55;44.81
11041;BME280;5573;49.592;8.662;2023-07-30T12:53:19;99816.19;;;22.55;45.86
11041;BME280;5573;49.592;8.662;2023-07-30T12:55:47;99816.56;;;22.19;45.68
11041;BME280;5573;49.592;8.662;2023-07-30T12:58:15;99795.22;;;22.84;45.70
11041;BME280;5573;49.592;8.662;2023-07-30T13:00:43;99808.00;;;23.40;44.56
11041;BME280;5573;49.592;8.662;2023-07-30T13:03:11;99816.56;;;23.14;45.30
11041;BME280;5573;49.592;8.662;2023-07-30T13:05:39;99822.34;;;23.27;44.92
11041;BME280;5573;49.592;8.662;2023-07-30T13:08:06;99816.66;;;23.04;45.14
11041;BME280;5573;49.592;8.662;2023-07-30T13:10:35;99824.63;;;23.57;43.74
11041;BME280;5573;49.592;8.662;2023-07-30T13:13:03;99814.25;;;23.78;43.03
11041;BME280;5573;49.592;8.662;2023-07-30T13:15:31;99824.22;;;23.82;41.92
11041;BME280;5573;49.592;8.662;2023-07-30T13:17:59;99821.22;;;22.90;41.74
11041;BME280;5573;49.592;8.662;2023-07-30T13:20:27;99819.69;;;22.32;42.74